createdAt,value
2022-12-25T00:01:15.600Z,64.76
2022-12-25T00:03:42.901Z,64.89
2022-12-25T00:06:09.865Z,64.38
2022-12-25T00:08:38.648Z,65.03
2022-12-25T00:11:08.816Z,65.20
2022-12-25T00:13:35.850Z,64.67
2022-12-25T00:16:06.791Z,64.83
2022-12-25T00:18:35.109Z,64.39
2022-12-25T00:21:05.088Z,64.54
2022-12-25T00:23:33.639Z,64.46
2022-12-25T00:26:05.157Z,64.83
2022-12-25T00:28:32.109Z,64.62
2022-12-25T00:30:59.041Z,64.46
2022-12-25T00:33:26.292Z,65.03
2022-12-25T00:36:01.989Z,64.89
2022-12-25T00:38:28.935Z,64.76
2022-12-25T00:40:56.317Z,64.80
2022-12-25T00:43:24.001Z,64.86
2022-12-25T00:45:57.174Z,64.84
2022-12-25T00:48:24.940Z,64.84
2022-12-25T00:50:54.775Z,65.14
2022-12-25T00:53:24.545Z,65.27
2022-12-25T00:55:53.239Z,65.04
2022-12-25T00:58:20.201Z,65.32
2022-12-25T01:00:48.921Z,65.64
2022-12-25T01:03:17.111Z,65.15
2022-12-25T01:05:53.547Z,65.47
2022-12-25T01:08:20.754Z,65.53
2022-12-25T01:10:56.069Z,65.24
2022-12-25T01:13:23.333Z,64.98
2022-12-25T01:15:52.106Z,65.04
2022-12-25T01:18:19.672Z,64.92
2022-12-25T01:20:47.395Z,65.26
2022-12-25T01:23:14.580Z,65.47
2022-12-25T01:25:41.806Z,65.26
2022-12-25T01:28:10.089Z,65.47
2022-12-25T01:30:37.033Z,65.91
2022-12-25T01:33:04.171Z,65.65
2022-12-25T01:35:31.090Z,65.79
2022-12-25T01:37:58.013Z,65.18
2022-12-25T01:40:24.945Z,65.43
2022-12-25T01:42:51.880Z,65.30
2022-12-25T01:45:41.943Z,64.75
2022-12-25T01:48:16.004Z,65.18
2022-12-25T01:50:49.885Z,64.94
2022-12-25T01:53:17.169Z,64.44
2022-12-25T01:55:48.921Z,64.83
2022-12-25T01:58:17.999Z,64.40
2022-12-25T02:00:46.724Z,64.68
2022-12-25T02:03:14.139Z,64.14
2022-12-25T02:05:41.185Z,64.09
2022-12-25T02:08:11.453Z,64.38
2022-12-25T02:10:39.124Z,64.12
2022-12-25T02:13:07.520Z,64.24
2022-12-25T02:15:46.811Z,63.70
2022-12-25T02:18:30.329Z,64.54
2022-12-25T02:21:13.390Z,64.15
2022-12-25T02:24:29.606Z,63.84
2022-12-25T02:27:11.044Z,63.80
2022-12-25T02:29:52.884Z,64.09
2022-12-25T02:32:30.923Z,64.21
2022-12-25T02:35:05.678Z,63.91
2022-12-25T02:37:42.483Z,64.04
2022-12-25T02:40:16.791Z,64.22
2022-12-25T02:43:09.669Z,64.36
2022-12-25T02:46:06.746Z,64.02
2022-12-25T02:48:59.436Z,63.93
2022-12-25T02:51:51.426Z,64.73
2022-12-25T02:54:47.270Z,64.23
2022-12-25T02:57:37.136Z,64.70
2022-12-25T03:00:27.674Z,64.04
2022-12-25T03:03:18.027Z,63.79
2022-12-25T03:06:05.779Z,63.58
2022-12-25T03:08:39.694Z,63.13
2022-12-25T03:11:29.889Z,62.94
2022-12-25T03:14:21.593Z,63.29
2022-12-25T03:16:53.763Z,63.21
2022-12-25T03:20:04.021Z,63.78
2022-12-25T03:22:51.447Z,63.58
2022-12-25T03:25:38.329Z,63.24
2022-12-25T03:28:06.385Z,63.61
2022-12-25T03:31:03.036Z,64.14
2022-12-25T03:34:03.330Z,63.89
2022-12-25T03:36:46.091Z,64.02
2022-12-25T03:39:43.404Z,64.25
2022-12-25T03:42:32.914Z,64.43
2022-12-25T03:45:27.623Z,64.51
2022-12-25T03:48:15.593Z,64.33
2022-12-25T03:51:07.722Z,64.69
2022-12-25T03:54:01.680Z,64.73
2022-12-25T03:56:50.501Z,64.70
2022-12-25T03:59:38.953Z,64.52
2022-12-25T04:02:24.655Z,64.87
2022-12-25T04:05:10.435Z,64.44
2022-12-25T04:07:55.884Z,64.60
2022-12-25T04:10:43.129Z,64.33
2022-12-25T04:13:28.833Z,65.00
2022-12-25T04:16:14.818Z,64.72
2022-12-25T04:19:00.091Z,64.49
2022-12-25T04:21:46.048Z,64.46
2022-12-25T04:24:31.417Z,65.09
2022-12-25T04:27:18.392Z,64.67
2022-12-25T04:30:03.859Z,64.93
2022-12-25T04:32:49.624Z,65.01
2022-12-25T04:35:34.934Z,65.52
2022-12-25T04:38:01.957Z,65.61
2022-12-25T04:40:28.904Z,65.02
2022-12-25T04:42:57.088Z,65.37
2022-12-25T04:45:24.018Z,65.37
2022-12-25T04:47:50.911Z,65.28
2022-12-25T04:50:17.919Z,65.17
2022-12-25T04:52:44.851Z,65.50
2022-12-25T04:55:12.051Z,65.29
2022-12-25T04:57:39.720Z,65.27
2022-12-25T05:00:09.812Z,65.33
2022-12-25T05:02:36.871Z,65.49
2022-12-25T05:05:04.600Z,65.85
2022-12-25T05:07:32.635Z,65.62
2022-12-25T05:09:59.508Z,65.37
2022-12-25T05:12:26.388Z,66.09
2022-12-25T05:14:53.274Z,65.94
2022-12-25T05:17:21.434Z,65.44
2022-12-25T05:19:48.274Z,65.56
2022-12-25T05:22:15.124Z,65.80
2022-12-25T05:24:42.059Z,65.55
2022-12-25T05:27:08.987Z,65.64
2022-12-25T05:29:35.849Z,65.43
2022-12-25T05:32:02.877Z,65.45
2022-12-25T05:34:31.157Z,65.57
2022-12-25T05:36:58.177Z,65.14
2022-12-25T05:39:25.074Z,65.13
2022-12-25T05:41:51.916Z,65.31
2022-12-25T05:44:18.761Z,65.15
2022-12-25T05:46:45.663Z,64.69
2022-12-25T05:49:12.855Z,64.73
2022-12-25T05:51:41.241Z,64.92
2022-12-25T05:54:08.254Z,64.53
2022-12-25T05:56:35.198Z,64.20
2022-12-25T05:59:02.048Z,64.33
2022-12-25T06:01:29.338Z,64.31
2022-12-25T06:03:57.481Z,64.77
2022-12-25T06:06:25.984Z,64.59
2022-12-25T06:08:55.686Z,64.65
2022-12-25T06:11:22.733Z,64.61
2022-12-25T06:13:50.683Z,64.12
2022-12-25T06:16:18.439Z,64.50
2022-12-25T06:18:48.653Z,63.95
2022-12-25T06:21:16.269Z,64.20
2022-12-25T06:23:43.897Z,63.45
2022-12-25T06:26:15.516Z,63.51
2022-12-25T06:28:42.615Z,63.52
2022-12-25T06:31:12.465Z,63.76
2022-12-25T06:33:39.522Z,63.30
2022-12-25T06:36:09.369Z,63.07
2022-12-25T06:38:36.410Z,63.32
2022-12-25T06:41:05.548Z,63.46
2022-12-25T06:43:34.102Z,63.10
2022-12-25T06:46:03.760Z,63.60
2022-12-25T06:48:32.138Z,63.39
2022-12-25T06:50:59.215Z,63.59
2022-12-25T06:53:26.399Z,62.92
2022-12-25T06:55:53.279Z,63.12
2022-12-25T06:58:20.351Z,62.98
2022-12-25T07:00:48.553Z,63.01
2022-12-25T07:03:21.140Z,62.95
2022-12-25T07:05:48.160Z,63.00
2022-12-25T07:08:15.099Z,63.41
2022-12-25T07:10:42.012Z,63.34
2022-12-25T07:13:08.876Z,63.56
2022-12-25T07:15:35.819Z,63.27
2022-12-25T07:18:04.410Z,63.84
2022-12-25T07:20:31.474Z,63.77
2022-12-25T07:22:58.358Z,63.37
2022-12-25T07:25:25.179Z,63.86
2022-12-25T07:27:52.058Z,63.14
2022-12-25T07:30:19.124Z,63.26
2022-12-25T07:32:50.148Z,63.12
2022-12-25T07:35:18.627Z,62.91
2022-12-25T07:37:45.573Z,63.37
2022-12-25T07:40:13.231Z,63.13
2022-12-25T07:42:41.166Z,63.08
2022-12-25T07:45:09.275Z,63.28
2022-12-25T07:47:36.147Z,63.11
2022-12-25T07:50:03.570Z,62.87
2022-12-25T07:52:32.765Z,63.22
2022-12-25T07:55:02.242Z,62.99
2022-12-25T07:57:29.783Z,63.31
2022-12-25T07:59:56.886Z,62.91
2022-12-25T08:02:28.477Z,62.78
2022-12-25T08:04:55.769Z,62.86
2022-12-25T08:07:23.375Z,62.59
2022-12-25T08:09:51.560Z,62.51
2022-12-25T08:12:18.446Z,62.74
2022-12-25T08:14:45.319Z,62.81
2022-12-25T08:17:12.319Z,63.14
2022-12-25T08:19:39.392Z,63.06
2022-12-25T08:22:06.541Z,63.44
2022-12-25T08:24:33.431Z,63.05
2022-12-25T08:27:01.735Z,63.22
2022-12-25T08:29:28.918Z,63.15
2022-12-25T08:31:55.949Z,63.45
2022-12-25T08:34:23.199Z,63.25
2022-12-25T08:36:50.107Z,63.08
2022-12-25T08:39:17.224Z,63.58
2022-12-25T08:41:44.144Z,63.23
2022-12-25T08:44:14.539Z,63.09
2022-12-25T08:46:41.432Z,63.48
2022-12-25T08:49:08.511Z,63.42
2022-12-25T08:51:37.111Z,63.14
2022-12-25T08:54:04.289Z,63.17
2022-12-25T08:56:31.277Z,63.27
2022-12-25T08:58:58.206Z,63.39
2022-12-25T09:01:26.496Z,63.00
2022-12-25T09:03:53.449Z,63.19
2022-12-25T09:06:20.348Z,63.00
2022-12-25T09:08:49.593Z,63.04
2022-12-25T09:11:19.253Z,63.33
2022-12-25T09:13:46.954Z,63.00
2022-12-25T09:16:17.938Z,62.85
2022-12-25T09:18:46.347Z,62.97
2022-12-25T09:21:15.943Z,63.10
2022-12-25T09:23:42.976Z,63.17
2022-12-25T09:26:13.550Z,63.19
2022-12-25T09:28:46.572Z,63.37
2022-12-25T09:31:17.489Z,63.37
2022-12-25T09:33:45.832Z,63.43
2022-12-25T09:36:12.812Z,63.27
2022-12-25T09:38:39.807Z,63.20
2022-12-25T09:41:16.967Z,63.55
2022-12-25T09:43:51.199Z,63.30
2022-12-25T09:46:23.531Z,63.29
2022-12-25T09:49:04.609Z,63.40
2022-12-25T09:51:36.776Z,63.57
2022-12-25T09:54:13.013Z,63.47
2022-12-25T09:56:39.919Z,63.55
2022-12-25T09:59:20.538Z,63.53
2022-12-25T10:02:15.620Z,63.67
2022-12-25T10:05:05.449Z,63.49
2022-12-25T10:07:43.818Z,63.52
2022-12-25T10:10:40.384Z,63.92
2022-12-25T10:13:21.028Z,63.74
2022-12-25T10:16:04.099Z,63.35
2022-12-25T10:19:19.333Z,63.72
2022-12-25T10:21:51.882Z,63.78
2022-12-25T10:24:33.781Z,63.72
2022-12-25T10:27:11.306Z,63.97
2022-12-25T10:29:39.630Z,63.94
2022-12-25T10:32:06.490Z,63.68
2022-12-25T10:34:33.646Z,63.82
2022-12-25T10:37:02.222Z,63.68
2022-12-25T10:39:29.197Z,63.77
2022-12-25T10:42:27.372Z,64.09
2022-12-25T10:44:57.658Z,63.81
2022-12-25T10:47:28.427Z,63.84
2022-12-25T10:49:56.647Z,64.11
2022-12-25T10:52:28.053Z,63.60
2022-12-25T10:54:55.925Z,63.68
2022-12-25T10:57:26.265Z,63.84
2022-12-25T10:59:56.444Z,63.76
2022-12-25T11:02:27.873Z,63.63
2022-12-25T11:05:03.878Z,63.50
2022-12-25T11:07:34.834Z,63.67
2022-12-25T11:10:15.070Z,63.63
2022-12-25T11:12:45.848Z,63.37
2022-12-25T11:15:45.917Z,63.20
2022-12-25T11:18:22.022Z,63.26
2022-12-25T11:20:51.001Z,63.08
2022-12-25T11:23:21.849Z,63.19
2022-12-25T11:25:56.173Z,63.05
2022-12-25T11:28:24.549Z,63.09
2022-12-25T11:30:59.360Z,63.18
2022-12-25T11:33:35.413Z,63.11
2022-12-25T11:36:12.594Z,62.98
2022-12-25T11:38:40.809Z,63.15
2022-12-25T11:41:12.534Z,63.09
2022-12-25T11:43:46.688Z,63.00
2022-12-25T11:46:20.629Z,62.92
2022-12-25T11:48:56.600Z,62.92
2022-12-25T11:51:29.991Z,62.84
2022-12-25T11:54:05.508Z,62.63
2022-12-25T11:56:33.090Z,62.71
2022-12-25T11:59:11.517Z,62.54
2022-12-25T12:01:47.011Z,62.55
2022-12-25T12:04:27.429Z,62.83
2022-12-25T12:07:05.699Z,62.89
2022-12-25T12:09:47.351Z,62.71
2022-12-25T12:12:22.029Z,62.71
2022-12-25T12:15:01.322Z,62.92
2022-12-25T12:17:28.512Z,62.74
2022-12-25T12:19:55.490Z,62.87
2022-12-25T12:22:25.969Z,63.19
2022-12-25T12:25:04.476Z,63.15
2022-12-25T12:27:36.518Z,63.03
2022-12-25T12:30:06.028Z,63.23
2022-12-25T12:32:41.373Z,63.36
2022-12-25T12:35:18.182Z,63.19
2022-12-25T12:37:51.016Z,63.36
2022-12-25T12:40:29.165Z,63.03
2022-12-25T12:42:56.410Z,63.09
2022-12-25T12:45:29.696Z,63.19
2022-12-25T12:47:57.634Z,63.12
2022-12-25T12:50:34.787Z,63.28
2022-12-25T12:53:26.867Z,63.29
2022-12-25T12:55:55.550Z,63.56
2022-12-25T12:58:33.055Z,63.50
2022-12-25T13:01:17.074Z,63.54
2022-12-25T13:04:06.537Z,63.59
2022-12-25T13:06:40.948Z,63.73
2022-12-25T13:09:35.461Z,63.78
2022-12-25T13:12:08.137Z,63.59
2022-12-25T13:14:37.848Z,63.88
2022-12-25T13:17:08.636Z,63.72
2022-12-25T13:19:37.842Z,63.79
2022-12-25T13:22:06.587Z,63.67
2022-12-25T13:24:36.407Z,63.73
2022-12-25T13:27:22.809Z,63.69
2022-12-25T13:29:49.911Z,63.60
2022-12-25T13:32:23.957Z,63.56
2022-12-25T13:34:52.621Z,63.51
2022-12-25T13:37:23.663Z,63.53
2022-12-25T13:39:54.547Z,63.53
2022-12-25T13:42:26.352Z,63.51
2022-12-25T13:44:57.479Z,63.62
2022-12-25T13:47:29.682Z,63.57
2022-12-25T13:49:58.886Z,63.47
2022-12-25T13:52:34.496Z,63.51
2022-12-25T13:55:04.606Z,63.26
2022-12-25T13:57:36.730Z,63.24
2022-12-25T14:00:16.124Z,63.51
2022-12-25T14:02:43.205Z,63.60
2022-12-25T14:05:28.543Z,63.40
2022-12-25T14:07:58.278Z,63.62
2022-12-25T14:10:29.338Z,63.52
2022-12-25T14:13:03.429Z,63.67
2022-12-25T14:15:33.143Z,63.51
2022-12-25T14:18:00.646Z,63.75
2022-12-25T14:20:30.681Z,63.50
2022-12-25T14:23:00.599Z,63.84
2022-12-25T14:25:33.234Z,63.74
2022-12-25T14:28:08.301Z,63.89
2022-12-25T14:30:36.416Z,64.03
2022-12-25T14:33:03.676Z,63.84
2022-12-25T14:35:31.024Z,63.84
2022-12-25T14:38:00.347Z,63.80
2022-12-25T14:40:30.962Z,63.65
2022-12-25T14:43:01.829Z,63.58
2022-12-25T14:45:32.347Z,63.57
2022-12-25T14:48:04.087Z,63.55
2022-12-25T14:50:37.294Z,63.07
2022-12-25T14:53:16.510Z,63.59
2022-12-25T14:55:49.023Z,63.78
2022-12-25T14:58:25.187Z,63.94
2022-12-25T15:00:56.459Z,63.88
2022-12-25T15:03:28.602Z,63.96
2022-12-25T15:06:01.307Z,64.14
2022-12-25T15:08:32.333Z,64.39
2022-12-25T15:11:02.128Z,64.72
2022-12-25T15:13:32.205Z,64.79
2022-12-25T15:16:06.254Z,64.84
2022-12-25T15:18:40.129Z,64.81
2022-12-25T15:21:15.546Z,64.93
2022-12-25T15:23:42.529Z,64.90
2022-12-25T15:26:13.095Z,64.71
2022-12-25T15:28:41.739Z,64.94
2022-12-25T15:31:21.957Z,64.62
2022-12-25T15:33:49.622Z,64.57
2022-12-25T15:36:16.583Z,64.61
2022-12-25T15:38:43.778Z,64.71
2022-12-25T15:41:34.215Z,64.80
2022-12-25T15:44:03.440Z,64.65
2022-12-25T15:46:30.877Z,64.75
2022-12-25T15:48:57.864Z,64.71
2022-12-25T15:51:24.735Z,64.69
2022-12-25T15:53:52.046Z,64.96
2022-12-25T15:56:19.562Z,65.05
2022-12-25T15:58:46.445Z,64.79
2022-12-25T16:01:16.402Z,65.04
2022-12-25T16:03:44.118Z,65.02
2022-12-25T16:06:13.315Z,65.27
2022-12-25T16:08:40.850Z,65.38
2022-12-25T16:11:08.973Z,65.47
2022-12-25T16:13:36.421Z,65.48
2022-12-25T16:16:04.980Z,65.65
2022-12-25T16:18:33.471Z,65.40
2022-12-25T16:21:00.456Z,65.39
2022-12-25T16:23:27.430Z,65.32
2022-12-25T16:25:54.345Z,65.23
2022-12-25T16:28:21.222Z,65.23
2022-12-25T16:30:48.342Z,65.19
2022-12-25T16:33:15.461Z,65.03
2022-12-25T16:35:44.047Z,64.99
2022-12-25T16:38:11.657Z,64.93
2022-12-25T16:40:38.748Z,64.74
2022-12-25T16:43:05.711Z,64.55
2022-12-25T16:45:38.310Z,64.47
2022-12-25T16:48:05.938Z,64.20
2022-12-25T16:50:34.093Z,64.08
2022-12-25T16:53:02.431Z,63.94
2022-12-25T16:55:30.373Z,64.01
2022-12-25T16:57:57.559Z,64.06
2022-12-25T17:00:24.879Z,63.93
2022-12-25T17:02:52.457Z,64.19
2022-12-25T17:05:19.493Z,64.14
2022-12-25T17:07:46.943Z,64.14
2022-12-25T17:10:15.159Z,64.09
2022-12-25T17:12:42.403Z,64.23
2022-12-25T17:15:10.058Z,64.00
2022-12-25T17:17:36.951Z,64.15
2022-12-25T17:20:05.422Z,63.96
2022-12-25T17:22:32.310Z,63.83
2022-12-25T17:24:59.201Z,63.74
2022-12-25T17:27:27.549Z,63.73
2022-12-25T17:29:54.905Z,63.86
2022-12-25T17:32:21.807Z,63.68
2022-12-25T17:34:48.822Z,63.78
2022-12-25T17:37:15.667Z,63.89
2022-12-25T17:39:42.582Z,63.95
2022-12-25T17:42:09.479Z,63.80
2022-12-25T17:44:37.656Z,63.61
2022-12-25T17:47:04.736Z,63.89
2022-12-25T17:49:31.706Z,63.88
2022-12-25T17:51:58.577Z,63.64
2022-12-25T17:54:25.445Z,63.86
2022-12-25T17:56:52.325Z,63.98
2022-12-25T17:59:19.336Z,63.69
2022-12-25T18:01:48.927Z,63.87
2022-12-25T18:04:16.007Z,63.86
2022-12-25T18:06:43.038Z,63.71
2022-12-25T18:09:11.520Z,63.57
2022-12-25T18:11:41.128Z,63.49
2022-12-25T18:14:13.231Z,63.39
2022-12-25T18:16:43.773Z,63.38
2022-12-25T18:19:15.043Z,63.57
2022-12-25T18:21:42.009Z,63.27
2022-12-25T18:24:09.797Z,63.27
2022-12-25T18:26:37.002Z,63.43
2022-12-25T18:29:04.295Z,63.55
2022-12-25T18:31:31.384Z,63.66
2022-12-25T18:33:59.781Z,63.77
2022-12-25T18:36:30.062Z,63.81
2022-12-25T18:38:58.158Z,63.61
2022-12-25T18:41:27.898Z,63.43
2022-12-25T18:43:55.802Z,63.42
2022-12-25T18:46:25.269Z,63.59
2022-12-25T18:48:54.413Z,63.43
2022-12-25T18:51:21.437Z,63.51
2022-12-25T18:53:49.680Z,63.36
2022-12-25T18:56:18.323Z,63.43
2022-12-25T18:58:46.484Z,63.65
2022-12-25T19:01:17.111Z,63.46
2022-12-25T19:03:45.880Z,63.21
2022-12-25T19:06:18.697Z,63.30
2022-12-25T19:08:46.501Z,63.08
2022-12-25T19:11:15.625Z,63.03
2022-12-25T19:13:42.875Z,63.27
2022-12-25T19:16:10.323Z,63.18
2022-12-25T19:18:37.519Z,62.95
2022-12-25T19:21:08.370Z,63.10
2022-12-25T19:23:37.653Z,63.11
2022-12-25T19:26:05.872Z,63.22
2022-12-25T19:28:34.826Z,63.01
2022-12-25T19:31:03.475Z,63.30
2022-12-25T19:33:31.872Z,63.20
2022-12-25T19:36:00.578Z,63.10
2022-12-25T19:38:27.906Z,63.58
2022-12-25T19:41:01.082Z,63.38
2022-12-25T19:43:29.445Z,63.61
2022-12-25T19:45:58.369Z,63.25
2022-12-25T19:48:25.786Z,63.46
2022-12-25T19:50:52.854Z,63.19
2022-12-25T19:53:23.396Z,63.21
2022-12-25T19:55:52.178Z,63.32
2022-12-25T19:58:19.190Z,63.07
2022-12-25T20:00:58.346Z,63.13
2022-12-25T20:03:25.854Z,63.20
2022-12-25T20:05:53.006Z,63.08
2022-12-25T20:08:19.965Z,63.17
2022-12-25T20:10:46.858Z,63.20
2022-12-25T20:13:13.767Z,63.27
2022-12-25T20:15:41.116Z,63.38
2022-12-25T20:18:09.338Z,63.04
2022-12-25T20:20:36.309Z,63.10
2022-12-25T20:23:03.545Z,63.15
2022-12-25T20:25:30.420Z,63.03
2022-12-25T20:27:57.827Z,62.80
2022-12-25T20:30:24.862Z,62.82
2022-12-25T20:32:52.425Z,62.85
2022-12-25T20:35:20.685Z,62.92
2022-12-25T20:37:47.569Z,62.55
2022-12-25T20:40:14.605Z,62.92
2022-12-25T20:42:43.123Z,62.92
2022-12-25T20:45:12.425Z,63.07
2022-12-25T20:47:39.312Z,62.89
2022-12-25T20:50:07.981Z,62.72
2022-12-25T20:52:36.208Z,62.68
2022-12-25T20:55:03.525Z,62.85
2022-12-25T20:57:30.572Z,63.06
2022-12-25T20:59:57.537Z,62.89
2022-12-25T21:02:35.423Z,62.88
2022-12-25T21:05:03.148Z,62.89
2022-12-25T21:07:30.159Z,62.74
2022-12-25T21:09:59.251Z,62.71
2022-12-25T21:12:26.308Z,62.81
2022-12-25T21:14:53.185Z,62.95
2022-12-25T21:17:20.175Z,62.71
2022-12-25T21:19:47.157Z,62.94
2022-12-25T21:22:14.303Z,62.96
2022-12-25T21:24:41.156Z,62.97
2022-12-25T21:27:09.453Z,62.96
2022-12-25T21:29:36.598Z,62.90
2022-12-25T21:32:22.174Z,63.11
2022-12-25T21:34:49.024Z,62.99
2022-12-25T21:37:16.021Z,62.95
2022-12-25T21:39:42.908Z,62.85
2022-12-25T21:42:11.272Z,62.98
2022-12-25T21:44:38.301Z,62.71
2022-12-25T21:47:05.241Z,62.87
2022-12-25T21:49:50.723Z,62.58
2022-12-25T21:52:18.486Z,62.54
2022-12-25T21:54:45.568Z,62.79
2022-12-25T21:57:13.934Z,62.84
2022-12-25T21:59:40.796Z,62.83
2022-12-25T22:02:11.303Z,63.02
2022-12-25T22:04:38.941Z,62.62
2022-12-25T22:07:17.834Z,62.56
2022-12-25T22:09:46.515Z,62.81
2022-12-25T22:12:34.962Z,62.42
2022-12-25T22:15:05.950Z,62.92
2022-12-25T22:17:54.821Z,62.82
2022-12-25T22:20:25.294Z,62.92
2022-12-25T22:22:52.992Z,62.77
2022-12-25T22:25:20.596Z,62.95
2022-12-25T22:27:49.517Z,62.61
2022-12-25T22:30:19.965Z,62.72
2022-12-25T22:32:47.459Z,62.76
2022-12-25T22:35:14.902Z,62.52
2022-12-25T22:37:43.381Z,62.71
2022-12-25T22:40:14.418Z,62.77
2022-12-25T22:42:42.046Z,62.57
2022-12-25T22:45:12.232Z,62.74
2022-12-25T22:47:39.285Z,62.43
2022-12-25T22:50:07.188Z,62.74
2022-12-25T22:52:34.137Z,62.92
2022-12-25T22:55:02.277Z,62.76
2022-12-25T22:57:29.300Z,62.84
2022-12-25T22:59:56.163Z,62.71
2022-12-25T23:02:24.596Z,62.81
2022-12-25T23:04:51.555Z,62.65
2022-12-25T23:07:18.813Z,63.15
2022-12-25T23:09:45.857Z,62.81
2022-12-25T23:12:32.856Z,62.83
2022-12-25T23:15:00.008Z,62.96
2022-12-25T23:17:46.822Z,62.96
2022-12-25T23:20:33.393Z,62.89
2022-12-25T23:23:19.176Z,63.06
2022-12-25T23:26:04.372Z,63.05
2022-12-25T23:28:50.192Z,63.04
2022-12-25T23:31:18.032Z,63.17
2022-12-25T23:33:46.296Z,63.13
2022-12-25T23:36:13.233Z,63.20
2022-12-25T23:38:40.086Z,62.96
2022-12-25T23:41:07.877Z,63.11
2022-12-25T23:43:34.757Z,63.19
2022-12-25T23:46:01.700Z,63.58
2022-12-25T23:48:28.648Z,63.63
2022-12-25T23:50:56.948Z,63.86
2022-12-25T23:53:24.991Z,63.88
2022-12-25T23:55:55.868Z,63.76
2022-12-25T23:58:23.018Z,63.63
